Alburgh, New York
Current Conditions -  °F | °C
As of 4:53 PM on Wednesday 22 Oct 2014 (Local Time) from KMSS Reporting Station
Overcast Overcast  
Wind Chill: 50°   Ceiling: 6500
Heat Index: 50°   Visibility: 10mi
Dew Point: 39°   Wind: 12mph
Humidity: 66%   Direction: 40°NE
Pressure: 30.23"   Gusts: NA
Location:  44.8293°N, 74.5271°W
Report Text: KMSS 222053Z AUTO 04010KT 10SM OVC065 10/04 A3023 RMK AO2 SLP241 T01000039 56002
Loading
Personal Weather Stations






























Interactive Weather Map
Tropical Storm Tracking
New forecast layout! Learn more

10-Day Weather Forecast

Advertisements
Track Severe Weather on mobile